Terminal Aerodrome Forecast
Issued by NWS Central Illinois

Home | Current Version | Previous Version | Text Only | Print | Product List | Glossary On
Versions: 1 2 3 4 5 6 7 8 9 10 11 12 13 14 15 16 17
191
FTUS43 KILX 040529
TAFPIA
TAF
KPIA 040529Z 0406/0506 12006KT P6SM OVC100
     FM040800 13004KT P6SM VCSH OVC070
     FM041000 14004KT 4SM -SN OVC030
     FM041400 14005KT 1SM -SN BR OVC008
     FM041800 16006KT 1SM -SNRA OVC004
     FM042000 17006KT P6SM OVC006
     FM050300 24005KT P6SM BKN010=

USA.gov is the U.S. government's official web portal to all federal, state and local government web resources and services.